createdAt,value
2023-03-06T00:01:31.949Z,50.83
2023-03-06T00:04:03.852Z,50.77
2023-03-06T00:06:35.589Z,51.50
2023-03-06T00:09:09.749Z,51.17
2023-03-06T00:11:41.341Z,51.17
2023-03-06T00:14:12.888Z,51.21
2023-03-06T00:16:47.440Z,51.28
2023-03-06T00:19:18.996Z,51.31
2023-03-06T00:21:50.805Z,51.22
2023-03-06T00:24:22.421Z,50.75
2023-03-06T00:26:56.966Z,50.87
2023-03-06T00:29:30.618Z,51.26
2023-03-06T00:32:05.751Z,51.62
2023-03-06T00:34:37.604Z,51.26
2023-03-06T00:37:09.299Z,51.15
2023-03-06T00:39:40.866Z,51.60
2023-03-06T00:42:13.249Z,50.92
2023-03-06T00:44:47.895Z,51.17
2023-03-06T00:47:19.513Z,50.31
2023-03-06T00:49:51.147Z,50.99
2023-03-06T00:52:22.710Z,50.81
2023-03-06T00:54:54.365Z,50.57
2023-03-06T00:57:25.953Z,50.84
2023-03-06T00:59:57.521Z,50.73
2023-03-06T01:02:29.247Z,50.58
2023-03-06T01:05:02.953Z,50.96
2023-03-06T01:07:36.590Z,51.47
2023-03-06T01:10:10.313Z,51.45
2023-03-06T01:12:41.894Z,51.59
2023-03-06T01:15:13.955Z,51.89
2023-03-06T01:17:45.700Z,51.93
2023-03-06T01:20:18.348Z,52.78
2023-03-06T01:22:50.044Z,52.59
2023-03-06T01:25:21.590Z,52.73
2023-03-06T01:27:53.329Z,52.54
2023-03-06T01:30:24.899Z,52.64
2023-03-06T01:32:56.486Z,53.18
2023-03-06T01:35:28.046Z,53.59
2023-03-06T01:37:59.712Z,53.72
2023-03-06T01:40:33.983Z,53.90
2023-03-06T01:43:28.926Z,53.92
2023-03-06T01:46:42.312Z,54.48
2023-03-06T01:49:24.357Z,54.03
2023-03-06T01:52:00.716Z,54.30
2023-03-06T01:54:46.532Z,54.29
2023-03-06T01:57:23.942Z,54.32
2023-03-06T02:00:13.898Z,54.42
2023-03-06T02:03:11.250Z,55.17
2023-03-06T02:05:44.020Z,54.95
2023-03-06T02:08:19.479Z,54.01
2023-03-06T02:11:21.178Z,53.99
2023-03-06T02:13:54.780Z,54.41
2023-03-06T02:16:31.354Z,54.20
2023-03-06T02:19:07.222Z,53.98
2023-03-06T02:21:44.482Z,53.84
2023-03-06T02:24:30.159Z,53.79
2023-03-06T02:27:05.507Z,53.47
2023-03-06T02:29:37.062Z,53.93
2023-03-06T02:32:09.044Z,53.90
2023-03-06T02:34:40.533Z,54.20
2023-03-06T02:37:12.117Z,54.42
2023-03-06T02:39:50.045Z,53.86
2023-03-06T02:42:26.335Z,54.08
2023-03-06T02:45:01.806Z,54.00
2023-03-06T02:47:33.335Z,53.50
2023-03-06T02:50:05.234Z,53.66
2023-03-06T02:52:36.830Z,53.55
2023-03-06T02:55:09.226Z,53.47
2023-03-06T02:57:40.889Z,53.57
2023-03-06T03:00:14.168Z,53.67
2023-03-06T03:02:48.677Z,53.42
2023-03-06T03:05:20.254Z,53.81
2023-03-06T03:07:52.033Z,53.98
2023-03-06T03:10:24.003Z,53.82
2023-03-06T03:12:56.037Z,53.59
2023-03-06T03:15:27.988Z,53.56
2023-03-06T03:17:59.516Z,53.76
2023-03-06T03:20:31.122Z,53.79
2023-03-06T03:23:02.899Z,54.12
2023-03-06T03:25:34.392Z,54.11
2023-03-06T03:28:06.003Z,54.45
2023-03-06T03:30:40.451Z,54.70
2023-03-06T03:33:12.844Z,54.76
2023-03-06T03:35:44.426Z,54.68
2023-03-06T03:38:16.050Z,54.56
2023-03-06T03:40:50.624Z,54.22
2023-03-06T03:43:22.490Z,54.50
2023-03-06T03:45:54.187Z,54.04
2023-03-06T03:48:25.877Z,54.57
2023-03-06T03:51:08.897Z,54.20
2023-03-06T03:53:40.684Z,53.44
2023-03-06T03:56:13.248Z,53.39
2023-03-06T03:58:44.811Z,53.63
2023-03-06T04:01:16.417Z,53.41
2023-03-06T04:03:48.307Z,53.50
2023-03-06T04:06:21.963Z,54.38
2023-03-06T04:08:53.875Z,54.39
2023-03-06T04:11:25.547Z,54.31
2023-03-06T04:13:57.225Z,53.88
2023-03-06T04:16:28.799Z,54.29
2023-03-06T04:19:00.815Z,54.29
2023-03-06T04:21:34.657Z,54.65
2023-03-06T04:24:07.066Z,54.06
2023-03-06T04:26:41.485Z,53.51
2023-03-06T04:29:13.121Z,53.91
2023-03-06T04:31:44.761Z,53.51
2023-03-06T04:34:16.415Z,53.37
2023-03-06T04:36:47.932Z,53.17
2023-03-06T04:39:19.453Z,53.89
2023-03-06T04:41:51.048Z,53.71
2023-03-06T04:44:22.749Z,53.43
2023-03-06T04:46:54.282Z,53.62
2023-03-06T04:49:26.089Z,54.26
2023-03-06T04:51:57.924Z,54.51
2023-03-06T04:54:29.819Z,53.35
2023-03-06T04:57:01.391Z,53.92
2023-03-06T04:59:32.969Z,53.63
2023-03-06T05:02:04.760Z,53.49
2023-03-06T05:04:36.315Z,53.98
2023-03-06T05:07:08.366Z,54.55
2023-03-06T05:09:39.952Z,54.38
2023-03-06T05:12:11.575Z,54.47
2023-03-06T05:14:43.787Z,53.99
2023-03-06T05:17:15.367Z,53.67
2023-03-06T05:19:46.923Z,53.75
2023-03-06T05:22:18.548Z,54.03
2023-03-06T05:24:50.253Z,54.03
2023-03-06T05:27:22.066Z,54.18
2023-03-06T05:29:54.537Z,54.45
2023-03-06T05:32:26.602Z,54.47
2023-03-06T05:34:58.184Z,54.27
2023-03-06T05:37:29.890Z,54.46
2023-03-06T05:40:06.624Z,54.23
2023-03-06T05:42:38.124Z,54.75
2023-03-06T05:45:10.777Z,54.10
2023-03-06T05:47:42.319Z,54.06
2023-03-06T05:50:14.806Z,54.55
2023-03-06T05:52:46.371Z,55.29
2023-03-06T05:55:19.558Z,54.20
2023-03-06T05:57:51.703Z,54.68
2023-03-06T06:00:24.119Z,54.42
2023-03-06T06:03:01.732Z,53.97
2023-03-06T06:05:33.278Z,54.25
2023-03-06T06:08:04.958Z,54.52
2023-03-06T06:10:36.576Z,54.38
2023-03-06T06:13:10.649Z,54.14
2023-03-06T06:15:42.279Z,54.07
2023-03-06T06:18:13.987Z,54.42
2023-03-06T06:20:45.716Z,54.67
2023-03-06T06:23:17.291Z,55.08
2023-03-06T06:25:48.910Z,54.56
2023-03-06T06:28:20.398Z,54.70
2023-03-06T06:30:51.997Z,54.54
2023-03-06T06:33:24.365Z,54.24
2023-03-06T06:35:55.965Z,53.92
2023-03-06T06:38:27.536Z,53.61
2023-03-06T06:41:31.221Z,52.92
2023-03-06T06:43:50.536Z,52.71
2023-03-06T06:46:59.262Z,52.42
2023-03-06T06:49:14.864Z,52.87
2023-03-06T06:51:46.460Z,53.15
2023-03-06T06:54:19.838Z,52.64
2023-03-06T06:56:52.030Z,53.13
2023-03-06T06:59:25.883Z,52.80
2023-03-06T07:01:57.711Z,52.12
2023-03-06T07:04:29.349Z,52.12
2023-03-06T07:07:01.418Z,51.77
2023-03-06T07:09:32.976Z,51.99
2023-03-06T07:12:04.879Z,51.63
2023-03-06T07:14:36.455Z,51.34
2023-03-06T07:17:09.649Z,51.24
2023-03-06T07:19:41.556Z,50.63
2023-03-06T07:22:13.105Z,51.17
2023-03-06T07:24:44.937Z,50.95
2023-03-06T07:27:16.494Z,50.76
2023-03-06T07:29:48.729Z,51.01
2023-03-06T07:32:23.961Z,50.59
2023-03-06T07:35:09.683Z,50.99
2023-03-06T07:37:47.088Z,53.26
2023-03-06T07:40:20.692Z,52.45
2023-03-06T07:43:09.246Z,52.81
2023-03-06T07:45:46.940Z,53.59
2023-03-06T07:48:18.545Z,52.67
2023-03-06T07:51:03.088Z,54.65
2023-03-06T07:53:35.459Z,52.60
2023-03-06T07:56:11.295Z,51.35
2023-03-06T07:58:46.979Z,50.83
2023-03-06T08:01:23.426Z,50.13
2023-03-06T08:03:55.456Z,49.84
2023-03-06T08:06:27.703Z,49.76
2023-03-06T08:08:59.697Z,50.40
2023-03-06T08:11:32.017Z,50.90
2023-03-06T08:14:04.007Z,50.41
2023-03-06T08:16:35.649Z,49.79
2023-03-06T08:19:07.524Z,49.61
2023-03-06T08:21:39.132Z,49.67
2023-03-06T08:24:10.858Z,49.73
2023-03-06T08:26:43.210Z,48.81
2023-03-06T08:29:15.454Z,47.96
2023-03-06T08:31:48.625Z,48.15
2023-03-06T08:34:24.584Z,48.98
2023-03-06T08:36:56.184Z,48.84
2023-03-06T08:39:27.675Z,49.37
2023-03-06T08:41:59.351Z,49.42
2023-03-06T08:44:35.018Z,49.42
2023-03-06T08:47:09.357Z,49.37
2023-03-06T08:49:40.890Z,49.09
2023-03-06T08:52:12.476Z,48.82
2023-03-06T08:54:44.058Z,47.41
2023-03-06T08:57:15.785Z,48.77
2023-03-06T08:59:47.283Z,49.06
2023-03-06T09:02:18.861Z,47.14
2023-03-06T09:04:50.482Z,46.84
2023-03-06T09:07:22.223Z,47.55
2023-03-06T09:09:58.037Z,46.54
2023-03-06T09:12:32.613Z,47.20
2023-03-06T09:15:10.628Z,47.01
2023-03-06T09:17:42.372Z,47.54
2023-03-06T09:20:15.111Z,47.54
2023-03-06T09:22:47.090Z,47.94
2023-03-06T09:25:20.487Z,48.56
2023-03-06T09:28:08.602Z,48.23
2023-03-06T09:30:42.297Z,47.40
2023-03-06T09:33:14.768Z,47.37
2023-03-06T09:35:52.429Z,47.37
2023-03-06T09:38:27.826Z,46.29
2023-03-06T09:41:00.366Z,47.08
2023-03-06T09:43:43.147Z,47.42
2023-03-06T09:46:36.685Z,46.55
2023-03-06T09:49:18.332Z,47.03
2023-03-06T09:52:40.987Z,47.58
2023-03-06T09:55:19.501Z,48.58
2023-03-06T09:58:01.631Z,46.54
2023-03-06T10:01:03.652Z,46.55
2023-03-06T10:04:05.746Z,46.27
2023-03-06T10:06:50.807Z,46.31
2023-03-06T10:09:48.310Z,45.67
2023-03-06T10:12:37.133Z,46.33
2023-03-06T10:15:28.604Z,46.43
2023-03-06T10:18:03.196Z,44.01
2023-03-06T10:21:00.939Z,44.56
2023-03-06T10:23:52.562Z,43.20
2023-03-06T10:26:32.978Z,43.73
2023-03-06T10:29:22.232Z,43.71
2023-03-06T10:32:11.606Z,41.50
2023-03-06T10:34:43.423Z,42.28
2023-03-06T10:37:22.264Z,41.24
2023-03-06T10:40:08.419Z,41.42
2023-03-06T10:42:40.123Z,42.02
2023-03-06T10:45:17.067Z,41.11
2023-03-06T10:47:48.639Z,42.09
2023-03-06T10:50:28.240Z,40.65
2023-03-06T10:53:07.185Z,40.36
2023-03-06T10:55:39.166Z,40.50
2023-03-06T10:58:30.892Z,40.45
2023-03-06T11:01:07.778Z,41.10
2023-03-06T11:03:39.463Z,41.62
2023-03-06T11:06:32.598Z,42.32
2023-03-06T11:09:25.677Z,40.09
2023-03-06T11:12:29.066Z,42.79
2023-03-06T11:15:06.726Z,41.63
2023-03-06T11:18:08.618Z,40.97
2023-03-06T11:20:51.370Z,42.00
2023-03-06T11:23:47.368Z,42.49
2023-03-06T11:26:34.493Z,40.95
2023-03-06T11:29:14.588Z,43.17
2023-03-06T11:31:55.822Z,43.37
2023-03-06T11:34:50.258Z,42.68
2023-03-06T11:37:49.471Z,43.52
2023-03-06T11:40:28.672Z,42.27
2023-03-06T11:43:23.383Z,41.88
2023-03-06T11:46:24.674Z,42.72
2023-03-06T11:49:24.409Z,42.78
2023-03-06T11:52:03.385Z,42.19
2023-03-06T11:54:35.793Z,43.56
2023-03-06T11:57:18.143Z,42.03
2023-03-06T12:00:04.428Z,41.56
2023-03-06T12:03:09.586Z,40.57
2023-03-06T12:06:09.719Z,41.72
2023-03-06T12:09:09.128Z,40.03
2023-03-06T12:11:57.137Z,38.80
2023-03-06T12:14:42.837Z,37.90
2023-03-06T12:17:50.771Z,38.94
2023-03-06T12:20:33.031Z,38.85
2023-03-06T12:23:36.705Z,39.72
2023-03-06T12:26:55.750Z,40.19
2023-03-06T12:29:56.213Z,40.02
2023-03-06T12:32:56.506Z,40.58
2023-03-06T12:36:17.435Z,39.45
2023-03-06T12:39:08.393Z,40.17
2023-03-06T12:42:04.927Z,40.04
2023-03-06T12:44:43.282Z,40.10
2023-03-06T12:47:20.724Z,42.14
2023-03-06T12:50:13.827Z,41.61
2023-03-06T12:52:46.937Z,38.73
2023-03-06T12:55:23.186Z,38.75
2023-03-06T12:57:55.885Z,38.17
2023-03-06T13:00:34.356Z,39.14
2023-03-06T13:04:02.524Z,39.75
2023-03-06T13:07:22.806Z,41.75
2023-03-06T13:10:10.858Z,41.65
2023-03-06T13:13:01.742Z,40.93
2023-03-06T13:16:04.281Z,39.77
2023-03-06T13:18:46.585Z,40.94
2023-03-06T13:21:55.300Z,41.37
2023-03-06T13:24:33.932Z,41.70
2023-03-06T13:27:12.298Z,39.92
2023-03-06T13:29:53.065Z,40.86
2023-03-06T13:32:32.789Z,39.51
2023-03-06T13:35:30.592Z,40.56
2023-03-06T13:38:02.176Z,39.25
2023-03-06T13:40:35.389Z,38.87
2023-03-06T13:43:06.955Z,38.53
2023-03-06T13:45:46.946Z,39.13
2023-03-06T13:48:47.655Z,38.36
2023-03-06T13:51:27.067Z,38.80
2023-03-06T13:54:42.492Z,37.96
2023-03-06T13:57:44.718Z,38.53
2023-03-06T14:01:12.389Z,39.02
2023-03-06T14:04:01.830Z,39.90
2023-03-06T14:06:37.282Z,40.68
2023-03-06T14:09:41.404Z,37.42
2023-03-06T14:12:26.767Z,37.88
2023-03-06T14:15:05.602Z,37.88
2023-03-06T14:17:39.211Z,38.54
2023-03-06T14:20:20.198Z,39.75
2023-03-06T14:23:33.482Z,42.08
2023-03-06T14:26:23.402Z,42.80
2023-03-06T14:29:00.756Z,42.17
2023-03-06T14:31:43.139Z,42.35
2023-03-06T14:34:27.619Z,41.97
2023-03-06T14:37:03.374Z,44.05
2023-03-06T14:39:42.706Z,42.97
2023-03-06T14:42:26.452Z,42.71
2023-03-06T14:45:05.536Z,42.18
2023-03-06T14:47:37.480Z,42.23
2023-03-06T14:50:25.657Z,42.22
2023-03-06T14:53:04.251Z,42.08
2023-03-06T14:55:36.342Z,43.58
2023-03-06T14:58:16.134Z,42.43
2023-03-06T15:00:57.016Z,43.63
2023-03-06T15:03:45.220Z,43.95
2023-03-06T15:06:24.388Z,43.26
2023-03-06T15:09:31.421Z,42.78
2023-03-06T15:12:33.473Z,43.52
2023-03-06T15:15:15.956Z,43.72
2023-03-06T15:17:48.493Z,43.24
2023-03-06T15:20:53.144Z,42.27
2023-03-06T15:23:36.647Z,41.28
2023-03-06T15:26:29.157Z,38.85
2023-03-06T15:29:16.760Z,41.15
2023-03-06T15:31:48.654Z,41.33
2023-03-06T15:34:23.796Z,41.62
2023-03-06T15:36:58.688Z,42.38
2023-03-06T15:39:40.408Z,42.71
2023-03-06T15:42:26.663Z,44.02
2023-03-06T15:45:03.426Z,43.62
2023-03-06T15:47:35.184Z,43.87
2023-03-06T15:50:22.158Z,43.27
2023-03-06T15:52:53.994Z,42.40
2023-03-06T15:55:26.281Z,40.36
2023-03-06T15:58:00.940Z,41.30
2023-03-06T16:00:40.082Z,42.99
2023-03-06T16:03:12.465Z,42.87
2023-03-06T16:05:44.250Z,42.87
2023-03-06T16:08:16.246Z,43.17
2023-03-06T16:10:48.289Z,43.30
2023-03-06T16:13:28.633Z,43.02
2023-03-06T16:16:00.210Z,43.53
2023-03-06T16:18:31.869Z,42.42
2023-03-06T16:21:03.827Z,43.42
2023-03-06T16:23:38.842Z,43.51
2023-03-06T16:26:29.293Z,43.05
2023-03-06T16:29:01.412Z,43.10
2023-03-06T16:31:33.244Z,43.84
2023-03-06T16:34:04.791Z,42.46
2023-03-06T16:36:36.779Z,43.13
2023-03-06T16:39:21.282Z,43.17
2023-03-06T16:41:53.020Z,45.13
2023-03-06T16:44:24.621Z,44.27
2023-03-06T16:46:56.199Z,43.92
2023-03-06T16:49:27.894Z,43.82
2023-03-06T16:52:00.402Z,45.09
2023-03-06T16:54:31.995Z,43.74
2023-03-06T16:57:03.646Z,43.92
2023-03-06T16:59:35.415Z,42.74
2023-03-06T17:02:07.044Z,43.15
2023-03-06T17:04:39.387Z,42.30
2023-03-06T17:07:10.954Z,43.88
2023-03-06T17:09:43.322Z,43.76
2023-03-06T17:12:15.004Z,43.21
2023-03-06T17:14:46.788Z,43.26
2023-03-06T17:17:18.561Z,44.10
2023-03-06T17:19:52.371Z,43.89
2023-03-06T17:22:26.632Z,44.42
2023-03-06T17:24:58.228Z,43.18
2023-03-06T17:27:30.244Z,43.25
2023-03-06T17:30:02.675Z,44.19
2023-03-06T17:32:34.394Z,43.80
2023-03-06T17:35:08.497Z,44.48
2023-03-06T17:37:40.189Z,45.06
2023-03-06T17:40:12.406Z,44.28
2023-03-06T17:42:44.042Z,44.91
2023-03-06T17:45:15.623Z,45.67
2023-03-06T17:47:49.042Z,45.78
2023-03-06T17:50:21.047Z,45.11
2023-03-06T17:52:52.633Z,45.65
2023-03-06T17:55:24.266Z,44.92
2023-03-06T17:57:55.823Z,44.86
2023-03-06T18:00:29.660Z,44.39
2023-03-06T18:03:01.275Z,44.24
2023-03-06T18:05:32.971Z,44.13
2023-03-06T18:08:05.718Z,45.45
2023-03-06T18:10:41.888Z,45.17
2023-03-06T18:13:14.188Z,44.81
2023-03-06T18:15:45.992Z,44.92
2023-03-06T18:18:17.570Z,45.46
2023-03-06T18:20:49.636Z,44.59
2023-03-06T18:23:21.756Z,44.68
2023-03-06T18:25:53.363Z,44.74
2023-03-06T18:28:27.310Z,45.46
2023-03-06T18:30:58.905Z,45.41
2023-03-06T18:33:30.403Z,44.52
2023-03-06T18:36:03.673Z,44.43
2023-03-06T18:38:35.426Z,44.74
2023-03-06T18:41:10.607Z,44.68
2023-03-06T18:43:42.325Z,43.96
2023-03-06T18:46:14.012Z,44.43
2023-03-06T18:48:45.739Z,45.56
2023-03-06T18:51:18.026Z,45.13
2023-03-06T18:53:49.797Z,44.78
2023-03-06T18:56:22.012Z,45.17
2023-03-06T18:58:54.708Z,44.51
2023-03-06T19:01:27.226Z,44.21
2023-03-06T19:04:01.707Z,45.15
2023-03-06T19:06:33.341Z,45.23
2023-03-06T19:09:05.655Z,45.06
2023-03-06T19:11:37.478Z,45.10
2023-03-06T19:14:09.220Z,44.54
2023-03-06T19:16:41.647Z,45.49
2023-03-06T19:19:13.304Z,45.17
2023-03-06T19:21:45.137Z,44.08
2023-03-06T19:24:16.677Z,44.41
2023-03-06T19:26:48.171Z,44.57
2023-03-06T19:29:19.749Z,43.61
2023-03-06T19:31:52.199Z,44.13
2023-03-06T19:34:23.838Z,43.91
2023-03-06T19:36:55.444Z,43.58
2023-03-06T19:39:27.035Z,43.76
2023-03-06T19:41:58.577Z,43.45
2023-03-06T19:44:30.290Z,44.47
2023-03-06T19:47:01.854Z,44.77
2023-03-06T19:49:33.955Z,44.50
2023-03-06T19:52:07.448Z,42.80
2023-03-06T19:54:39.239Z,42.67
2023-03-06T19:57:10.824Z,42.58
2023-03-06T19:59:42.538Z,43.95
2023-03-06T20:02:16.052Z,44.81
2023-03-06T20:04:47.633Z,45.68
2023-03-06T20:07:19.357Z,45.06
2023-03-06T20:09:52.327Z,45.40
2023-03-06T20:12:23.829Z,45.78
2023-03-06T20:14:55.373Z,44.73
2023-03-06T20:17:29.564Z,45.18
2023-03-06T20:20:01.797Z,45.30
2023-03-06T20:22:33.548Z,45.18
2023-03-06T20:25:06.140Z,45.73
2023-03-06T20:27:37.821Z,45.27
2023-03-06T20:30:10.261Z,45.68
2023-03-06T20:32:41.841Z,46.96
2023-03-06T20:35:13.998Z,46.07
2023-03-06T20:37:48.712Z,45.86
2023-03-06T20:40:22.786Z,45.66
2023-03-06T20:42:54.380Z,45.77
2023-03-06T20:45:26.050Z,45.71
2023-03-06T20:47:57.705Z,46.17
2023-03-06T20:50:29.335Z,45.69
2023-03-06T20:53:01.620Z,45.88
2023-03-06T20:55:37.586Z,46.21
2023-03-06T20:58:09.160Z,46.37
2023-03-06T21:00:41.351Z,46.77
2023-03-06T21:03:12.948Z,46.20
2023-03-06T21:05:47.814Z,45.82
2023-03-06T21:08:19.433Z,45.89
2023-03-06T21:10:51.148Z,46.36
2023-03-06T21:13:22.725Z,46.02
2023-03-06T21:15:56.603Z,47.52
2023-03-06T21:18:28.162Z,46.22
2023-03-06T21:21:04.250Z,46.49
2023-03-06T21:23:42.892Z,46.93
2023-03-06T21:26:24.904Z,46.74
2023-03-06T21:28:59.021Z,47.38
2023-03-06T21:31:31.781Z,47.00
2023-03-06T21:34:05.168Z,47.87
2023-03-06T21:36:37.231Z,47.76
2023-03-06T21:39:09.285Z,47.12
2023-03-06T21:41:41.176Z,46.03
2023-03-06T21:44:18.231Z,47.08
2023-03-06T21:46:57.450Z,46.64
2023-03-06T21:49:30.153Z,46.85
2023-03-06T21:52:01.658Z,47.74
2023-03-06T21:54:33.261Z,46.80
2023-03-06T21:57:05.066Z,47.82
2023-03-06T21:59:37.710Z,47.11
2023-03-06T22:02:10.941Z,47.62
2023-03-06T22:04:42.896Z,47.58
2023-03-06T22:07:14.459Z,47.29
2023-03-06T22:09:46.594Z,46.90
2023-03-06T22:12:21.722Z,46.51
2023-03-06T22:14:53.896Z,45.78
2023-03-06T22:17:25.638Z,46.00
2023-03-06T22:19:57.799Z,46.39
2023-03-06T22:22:30.707Z,48.05
2023-03-06T22:25:02.799Z,47.39
2023-03-06T22:27:34.326Z,46.41
2023-03-06T22:30:08.468Z,47.02
2023-03-06T22:32:40.081Z,47.34
2023-03-06T22:35:11.694Z,47.85
2023-03-06T22:37:45.386Z,48.29
2023-03-06T22:40:17.106Z,47.64
2023-03-06T22:42:48.666Z,48.86
2023-03-06T22:45:20.244Z,49.86
2023-03-06T22:47:55.139Z,49.42
2023-03-06T22:50:28.797Z,49.55
2023-03-06T22:53:00.287Z,49.56
2023-03-06T22:55:35.110Z,49.08
2023-03-06T22:58:06.690Z,48.89
2023-03-06T23:00:39.327Z,48.98
2023-03-06T23:03:10.844Z,48.13
2023-03-06T23:05:43.042Z,48.75
2023-03-06T23:08:14.772Z,48.31
2023-03-06T23:10:46.276Z,48.91
2023-03-06T23:13:17.820Z,49.75
2023-03-06T23:15:49.429Z,50.27
2023-03-06T23:18:21.082Z,49.21
2023-03-06T23:20:52.714Z,48.21
2023-03-06T23:23:25.172Z,48.56
2023-03-06T23:26:00.431Z,49.88
2023-03-06T23:28:32.808Z,49.42
2023-03-06T23:31:31.226Z,49.74
2023-03-06T23:34:03.814Z,50.02
2023-03-06T23:36:38.431Z,49.45
2023-03-06T23:39:12.569Z,48.52
2023-03-06T23:41:44.160Z,49.30
2023-03-06T23:44:15.759Z,48.42
2023-03-06T23:46:47.330Z,49.87
2023-03-06T23:49:21.973Z,48.61
2023-03-06T23:51:56.686Z,48.51
2023-03-06T23:54:28.252Z,49.50
2023-03-06T23:56:59.994Z,49.13
2023-03-06T23:59:31.783Z,49.70
